Time;durP1;ratioP1;P1;durP2;ratioP2;P2;SDS_P1;SDS_P2;PMS_P1;PMS_P2;Temp;Humidity;BMP_temperature;BMP_pressure;BME280_temperature;BME280_humidity;BME280_pressure;Samples;Min_cycle;Max_cycle;Signal;HPM_P1;HPM_P2
2023/12/21 00:00:10;;;;;;;15.43;5.57;;;;;;;;;;4993309;28;20303;-78
2023/12/21 00:02:38;;;;;;;8.10;3.07;;;;;;;;;;4993890;28;20209;-78
2023/12/21 00:05:07;;;;;;;11.33;3.80;;;;;;;;;;4993535;28;20211;-79
2023/12/21 00:07:36;;;;;;;15.50;4.43;;;;;;;;;;4993507;28;20208;-78
2023/12/21 00:10:05;;;;;;;9.93;3.90;;;;;;;;;;4992768;28;20193;-79
2023/12/21 00:12:33;;;;;;;9.00;2.83;;;;;;;;;;4993244;28;20302;-78
2023/12/21 00:15:01;;;;;;;13.57;4.10;;;;;;;;;;4993777;28;20199;-78
2023/12/21 00:17:31;;;;;;;9.37;3.53;;;;;;;;;;4993292;28;20240;-78
2023/12/21 00:20:00;;;;;;;15.40;4.90;;;;;;;;;;4993007;28;20303;-79
2023/12/21 00:22:29;;;;;;;8.00;3.60;;;;;;;;;;4993024;28;20224;-78
2023/12/21 00:24:57;;;;;;;9.43;2.90;;;;;;;;;;4993357;28;20257;-78
2023/12/21 00:27:26;;;;;;;14.07;4.90;;;;;;;;;;4993065;28;20235;-78
2023/12/21 00:29:54;;;;;;;16.33;3.33;;;;;;;;;;4993085;28;20207;-78
2023/12/21 00:32:23;;;;;;;11.00;3.57;;;;;;;;;;4992697;28;20216;-78
2023/12/21 00:34:53;;;;;;;11.17;3.27;;;;;;;;;;4993327;28;20200;-78
2023/12/21 00:37:22;;;;;;;13.37;5.33;;;;;;;;;;4993061;28;20212;-78
2023/12/21 00:39:51;;;;;;;11.30;3.30;;;;;;;;;;4992966;28;20227;-78
2023/12/21 00:42:20;;;;;;;11.97;3.50;;;;;;;;;;4992873;28;20212;-78
2023/12/21 00:44:48;;;;;;;8.33;2.57;;;;;;;;;;4992900;28;20207;-78
2023/12/21 00:47:17;;;;;;;8.90;3.47;;;;;;;;;;4993178;28;20200;-78
2023/12/21 00:49:46;;;;;;;1.90;1.63;;;;;;;;;;4992916;28;20211;-78
2023/12/21 00:52:16;;;;;;;16.30;4.10;;;;;;;;;;4992446;28;20208;-78
2023/12/21 00:54:44;;;;;;;8.17;2.83;;;;;;;;;;4992795;28;20203;-78
2023/12/21 00:57:13;;;;;;;13.70;4.07;;;;;;;;;;4992900;28;20204;-78
2023/12/21 00:59:41;;;;;;;13.73;3.93;;;;;;;;;;4992510;28;20231;-78
2023/12/21 01:02:13;;;;;;;7.77;2.97;;;;;;;;;;4992052;28;20423;-78
2023/12/21 01:04:41;;;;;;;12.40;3.80;;;;;;;;;;4992525;28;20212;-79
2023/12/21 01:07:10;;;;;;;12.13;3.47;;;;;;;;;;4992921;28;20200;-78
2023/12/21 01:09:42;;;;;;;14.20;3.53;;;;;;;;;;4992933;28;20203;-78
2023/12/21 01:12:11;;;;;;;20.17;5.37;;;;;;;;;;4992170;28;20218;-78
2023/12/21 01:14:40;;;;;;;6.37;2.60;;;;;;;;;;4992290;28;20200;-78
2023/12/21 01:17:09;;;;;;;4.57;3.07;;;;;;;;;;4992357;28;20267;-78
2023/12/21 01:19:38;;;;;;;18.73;4.40;;;;;;;;;;4992488;28;20221;-78
2023/12/21 01:22:06;;;;;;;13.40;3.87;;;;;;;;;;4991965;28;20207;-78
2023/12/21 01:24:35;;;;;;;22.27;3.60;;;;;;;;;;4992437;28;20298;-78
2023/12/21 01:27:05;;;;;;;11.63;3.03;;;;;;;;;;4992249;28;20270;-78
2023/12/21 01:29:40;;;;;;;9.57;2.67;;;;;;;;;;4992659;28;20257;-78
2023/12/21 01:32:08;;;;;;;19.27;4.67;;;;;;;;;;4991565;28;20207;-78
2023/12/21 01:34:37;;;;;;;10.40;2.37;;;;;;;;;;4992394;28;20219;-78
2023/12/21 01:37:05;;;;;;;7.70;2.90;;;;;;;;;;4992282;28;20255;-78
2023/12/21 01:39:34;;;;;;;7.63;2.90;;;;;;;;;;4992309;28;20201;-79
2023/12/21 01:42:03;;;;;;;8.13;3.23;;;;;;;;;;4991831;28;20208;-78
2023/12/21 01:44:33;;;;;;;14.83;4.33;;;;;;;;;;4992059;28;20207;-78
2023/12/21 01:47:01;;;;;;;13.40;3.87;;;;;;;;;;4992088;28;20261;-79
2023/12/21 01:49:30;;;;;;;9.87;3.63;;;;;;;;;;4992465;28;20228;-78
2023/12/21 01:52:00;;;;;;;14.37;4.27;;;;;;;;;;4991719;28;20299;-79
2023/12/21 01:54:28;;;;;;;12.70;3.83;;;;;;;;;;4991850;28;20204;-78
2023/12/21 01:56:57;;;;;;;10.63;3.43;;;;;;;;;;4992352;28;20222;-79
2023/12/21 01:59:26;;;;;;;11.63;3.67;;;;;;;;;;4992485;28;20223;-78
2023/12/21 02:01:56;;;;;;;4.73;2.63;;;;;;;;;;4991941;28;20286;-78
2023/12/21 02:04:25;;;;;;;12.53;4.50;;;;;;;;;;4991834;28;20210;-78
2023/12/21 02:06:54;;;;;;;9.57;3.97;;;;;;;;;;4991994;28;20200;-78
2023/12/21 02:09:22;;;;;;;7.50;3.63;;;;;;;;;;4992173;28;20238;-78
2023/12/21 02:11:51;;;;;;;8.17;2.87;;;;;;;;;;4991798;28;20458;-78
2023/12/21 02:14:19;;;;;;;6.10;2.07;;;;;;;;;;4991805;28;20215;-78
2023/12/21 02:16:51;;;;;;;11.13;3.43;;;;;;;;;;4993578;28;20218;-78
2023/12/21 02:19:21;;;;;;;12.87;2.83;;;;;;;;;;4995808;28;20204;-79
2023/12/21 02:21:51;;;;;;;10.03;2.80;;;;;;;;;;4995280;28;20228;-79
2023/12/21 02:24:20;;;;;;;9.03;3.20;;;;;;;;;;4995036;28;20226;-78
2023/12/21 02:26:49;;;;;;;7.93;3.27;;;;;;;;;;4995113;28;20208;-78
2023/12/21 02:29:17;;;;;;;9.73;2.83;;;;;;;;;;4995159;28;20206;-78
2023/12/21 02:31:46;;;;;;;7.87;2.97;;;;;;;;;;4995483;28;20203;-79
2023/12/21 02:34:14;;;;;;;13.60;4.67;;;;;;;;;;4995085;28;20225;-78
2023/12/21 02:36:43;;;;;;;15.13;5.83;;;;;;;;;;4995196;28;20234;-78
2023/12/21 02:39:11;;;;;;;14.23;3.13;;;;;;;;;;4995282;28;20200;-78
2023/12/21 02:41:42;;;;;;;3.33;2.43;;;;;;;;;;4995518;28;20220;-78
2023/12/21 02:44:10;;;;;;;12.23;4.07;;;;;;;;;;4994238;28;20195;-78
2023/12/21 02:46:41;;;;;;;6.03;3.03;;;;;;;;;;4994824;28;20211;-78
2023/12/21 02:49:10;;;;;;;7.93;3.03;;;;;;;;;;4995171;28;20275;-79
2023/12/21 02:51:38;;;;;;;9.07;2.17;;;;;;;;;;4994931;28;20212;-78
2023/12/21 02:54:07;;;;;;;9.33;3.30;;;;;;;;;;4994669;28;20263;-79
2023/12/21 02:56:35;;;;;;;11.83;4.40;;;;;;;;;;4994939;28;20208;-78
2023/12/21 02:59:05;;;;;;;5.13;2.43;;;;;;;;;;4995325;28;20236;-78
2023/12/21 03:01:34;;;;;;;8.90;3.80;;;;;;;;;;4994642;28;20220;-78
2023/12/21 03:04:02;;;;;;;9.23;2.93;;;;;;;;;;4994688;28;20208;-78
2023/12/21 03:06:31;;;;;;;11.53;3.57;;;;;;;;;;4994790;28;20203;-78
2023/12/21 03:08:59;;;;;;;4.43;2.10;;;;;;;;;;4994769;28;20211;-78
2023/12/21 03:11:27;;;;;;;4.37;2.07;;;;;;;;;;4994676;28;20200;-78
2023/12/21 03:13:56;;;;;;;8.97;3.40;;;;;;;;;;4994278;28;20224;-78
2023/12/21 03:16:26;;;;;;;8.70;3.03;;;;;;;;;;4993915;28;20226;-78
2023/12/21 03:18:55;;;;;;;8.03;3.30;;;;;;;;;;4994660;28;20222;-78
2023/12/21 03:21:23;;;;;;;5.47;3.00;;;;;;;;;;4994685;28;20254;-78
2023/12/21 03:23:52;;;;;;;3.93;2.13;;;;;;;;;;4994474;28;20228;-79
2023/12/21 03:26:20;;;;;;;6.43;2.73;;;;;;;;;;4993912;28;20227;-78
2023/12/21 03:28:49;;;;;;;3.60;2.30;;;;;;;;;;4993252;28;20259;-78
2023/12/21 03:31:18;;;;;;;9.83;3.50;;;;;;;;;;4994327;28;20307;-78
2023/12/21 03:33:47;;;;;;;16.57;4.53;;;;;;;;;;4994110;28;20291;-79
2023/12/21 03:36:17;;;;;;;7.10;2.73;;;;;;;;;;4993891;28;20200;-78
2023/12/21 03:38:45;;;;;;;20.57;5.60;;;;;;;;;;4994163;28;20214;-78
2023/12/21 03:41:14;;;;;;;12.93;3.40;;;;;;;;;;4994391;28;20223;-78
2023/12/21 03:43:42;;;;;;;11.17;3.27;;;;;;;;;;4993920;28;20224;-78
2023/12/21 03:46:14;;;;;;;6.93;2.17;;;;;;;;;;4993994;28;20299;-78
2023/12/21 03:48:42;;;;;;;10.93;4.07;;;;;;;;;;4994120;28;20232;-78
2023/12/21 03:51:12;;;;;;;10.17;3.43;;;;;;;;;;4994247;28;20201;-78
2023/12/21 03:53:41;;;;;;;10.27;3.30;;;;;;;;;;4993872;28;20307;-78
2023/12/21 03:56:09;;;;;;;8.00;2.83;;;;;;;;;;4993301;28;20200;-78
2023/12/21 03:58:38;;;;;;;7.97;3.23;;;;;;;;;;4993971;28;20487;-78
2023/12/21 04:01:07;;;;;;;11.73;3.23;;;;;;;;;;4994083;28;20227;-78
2023/12/21 04:03:37;;;;;;;10.43;3.50;;;;;;;;;;4994060;28;20207;-79
2023/12/21 04:06:06;;;;;;;12.83;2.97;;;;;;;;;;4993312;28;20201;-79
2023/12/21 04:08:36;;;;;;;5.87;2.47;;;;;;;;;;4993406;28;20235;-78
2023/12/21 04:11:04;;;;;;;9.70;3.40;;;;;;;;;;4993318;28;20214;-78
2023/12/21 04:13:33;;;;;;;15.90;4.13;;;;;;;;;;4993983;28;20208;-78
2023/12/21 04:16:01;;;;;;;17.53;5.23;;;;;;;;;;4993137;28;20203;-78
2023/12/21 04:18:30;;;;;;;15.20;3.27;;;;;;;;;;4993449;28;20204;-78
2023/12/21 04:20:59;;;;;;;8.57;2.60;;;;;;;;;;4993307;28;20203;-78
2023/12/21 04:23:29;;;;;;;13.30;3.73;;;;;;;;;;4993387;28;20265;-78
2023/12/21 04:25:59;;;;;;;20.73;5.23;;;;;;;;;;4992651;28;20215;-79
2023/12/21 04:28:27;;;;;;;11.50;3.53;;;;;;;;;;4992600;28;20247;-79
2023/12/21 04:30:55;;;;;;;13.90;4.30;;;;;;;;;;4993104;28;20231;-78
2023/12/21 04:33:24;;;;;;;10.47;4.30;;;;;;;;;;4993250;28;20206;-78
2023/12/21 04:35:53;;;;;;;13.70;4.90;;;;;;;;;;4992815;28;20208;-78
2023/12/21 04:38:21;;;;;;;9.60;2.77;;;;;;;;;;4992514;28;20209;-78
2023/12/21 04:40:49;;;;;;;7.40;3.07;;;;;;;;;;4992877;28;20202;-78
2023/12/21 04:43:19;;;;;;;8.77;2.80;;;;;;;;;;4992833;28;20224;-79
2023/12/21 04:45:48;;;;;;;10.37;3.10;;;;;;;;;;4992424;28;20226;-79
2023/12/21 04:48:16;;;;;;;14.83;4.00;;;;;;;;;;4992167;28;20200;-78
2023/12/21 04:50:45;;;;;;;15.27;3.80;;;;;;;;;;4992513;28;20461;-78
2023/12/21 04:53:13;;;;;;;8.77;3.77;;;;;;;;;;4992745;28;20204;-78
2023/12/21 04:55:42;;;;;;;21.30;6.83;;;;;;;;;;4992615;28;20206;-79
2023/12/21 04:58:10;;;;;;;14.03;4.93;;;;;;;;;;4992339;28;20205;-78
2023/12/21 05:00:47;;;;;;;7.83;3.27;;;;;;;;;;4993179;28;20208;-79
2023/12/21 05:03:15;;;;;;;12.40;4.67;;;;;;;;;;4992598;28;20220;-79
2023/12/21 05:05:45;;;;;;;10.43;3.10;;;;;;;;;;4992779;28;20200;-78
2023/12/21 05:08:14;;;;;;;5.33;2.37;;;;;;;;;;4991893;28;20254;-79
2023/12/21 05:10:42;;;;;;;18.50;5.00;;;;;;;;;;4992607;28;20201;-78
2023/12/21 05:13:11;;;;;;;10.17;4.00;;;;;;;;;;4992516;28;20229;-78
2023/12/21 05:15:41;;;;;;;11.20;2.87;;;;;;;;;;4992580;28;20208;-78
2023/12/21 05:18:09;;;;;;;10.80;3.93;;;;;;;;;;4991730;28;20205;-79
2023/12/21 05:20:38;;;;;;;6.13;2.17;;;;;;;;;;4992011;28;20196;-78
2023/12/21 05:23:06;;;;;;;8.67;2.63;;;;;;;;;;4992481;28;20224;-78
2023/12/21 05:25:35;;;;;;;14.27;4.03;;;;;;;;;;4992702;28;20274;-79
2023/12/21 05:28:03;;;;;;;14.90;4.00;;;;;;;;;;4991452;28;20270;-79
2023/12/21 05:30:32;;;;;;;15.17;3.87;;;;;;;;;;4992483;28;20204;-79
2023/12/21 05:33:02;;;;;;;13.10;5.43;;;;;;;;;;4992572;28;20200;-79
2023/12/21 05:35:31;;;;;;;11.93;3.30;;;;;;;;;;4992446;28;20234;-79
2023/12/21 05:38:00;;;;;;;9.53;3.90;;;;;;;;;;4991555;28;20208;-79
2023/12/21 05:40:28;;;;;;;9.57;2.77;;;;;;;;;;4992174;28;20204;-79
2023/12/21 05:42:57;;;;;;;8.60;3.43;;;;;;;;;;4992414;28;20227;-78
2023/12/21 05:45:25;;;;;;;10.97;2.13;;;;;;;;;;4992206;28;20231;-78
2023/12/21 05:47:58;;;;;;;16.20;4.60;;;;;;;;;;4991752;28;20204;-78
2023/12/21 05:50:28;;;;;;;8.27;2.27;;;;;;;;;;4992142;28;20227;-78
2023/12/21 05:52:57;;;;;;;9.07;3.43;;;;;;;;;;4995887;28;20235;-78
2023/12/21 05:55:25;;;;;;;4.97;2.03;;;;;;;;;;4996382;28;20236;-79
2023/12/21 05:57:56;;;;;;;10.13;3.63;;;;;;;;;;4995462;28;20217;-79
2023/12/21 06:00:36;;;;;;;12.07;3.70;;;;;;;;;;4995968;28;20200;-78
2023/12/21 06:03:05;;;;;;;5.87;2.47;;;;;;;;;;4995599;28;20243;-78
2023/12/21 06:05:35;;;;;;;8.03;3.00;;;;;;;;;;4995944;28;20200;-78
2023/12/21 06:08:03;;;;;;;10.27;4.90;;;;;;;;;;4995162;28;20200;-79
2023/12/21 06:10:34;;;;;;;11.70;3.10;;;;;;;;;;4995429;28;20204;-78
2023/12/21 06:13:02;;;;;;;5.33;3.47;;;;;;;;;;4995674;28;20203;-79
2023/12/21 06:15:30;;;;;;;7.43;2.93;;;;;;;;;;4996016;28;20203;-79
2023/12/21 06:17:59;;;;;;;8.83;3.13;;;;;;;;;;4995468;28;20200;-78
2023/12/21 06:20:27;;;;;;;8.97;3.60;;;;;;;;;;4995514;28;20275;-78
2023/12/21 06:22:57;;;;;;;5.07;3.10;;;;;;;;;;4995722;28;20235;-78
2023/12/21 06:25:26;;;;;;;10.57;3.23;;;;;;;;;;4996028;28;20215;-79
2023/12/21 06:27:54;;;;;;;11.53;3.67;;;;;;;;;;4994989;28;20240;-78
2023/12/21 06:30:23;;;;;;;9.90;3.53;;;;;;;;;;4994826;28;20192;-78
2023/12/21 06:32:51;;;;;;;8.77;2.83;;;;;;;;;;4995849;28;20219;-79
2023/12/21 06:35:20;;;;;;;4.27;2.03;;;;;;;;;;4995464;28;20230;-78
2023/12/21 06:37:48;;;;;;;5.37;2.20;;;;;;;;;;4995080;28;20201;-79
2023/12/21 06:40:18;;;;;;;7.10;2.17;;;;;;;;;;4994964;28;20302;-78
2023/12/21 06:42:47;;;;;;;10.23;2.27;;;;;;;;;;4995382;28;20224;-78
2023/12/21 06:45:16;;;;;;;7.90;2.13;;;;;;;;;;4995310;28;20200;-79
2023/12/21 06:47:44;;;;;;;2.80;1.87;;;;;;;;;;4995301;28;20201;-78
2023/12/21 06:50:13;;;;;;;9.00;2.43;;;;;;;;;;4994714;28;20200;-78
2023/12/21 06:52:41;;;;;;;10.60;2.77;;;;;;;;;;4995137;28;20196;-78
2023/12/21 06:55:10;;;;;;;8.03;2.80;;;;;;;;;;4995438;28;20200;-78
2023/12/21 06:57:40;;;;;;;5.30;2.07;;;;;;;;;;4995263;28;20200;-78
2023/12/21 07:00:11;;;;;;;15.07;3.20;;;;;;;;;;4994336;28;20196;-78
2023/12/21 07:02:39;;;;;;;7.17;2.80;;;;;;;;;;4994435;28;20232;-78
2023/12/21 07:05:08;;;;;;;17.40;4.90;;;;;;;;;;4994735;28;20196;-78
2023/12/21 07:07:37;;;;;;;7.07;3.13;;;;;;;;;;4994651;28;20296;-78
2023/12/21 07:10:06;;;;;;;11.87;3.87;;;;;;;;;;4994264;28;20211;-79
2023/12/21 07:12:34;;;;;;;8.53;3.33;;;;;;;;;;4994654;28;20256;-78
2023/12/21 07:15:05;;;;;;;4.57;2.47;;;;;;;;;;4995262;28;20192;-78
2023/12/21 07:17:33;;;;;;;10.63;3.20;;;;;;;;;;4994961;28;20211;-78
2023/12/21 07:20:02;;;;;;;10.73;3.73;;;;;;;;;;4994404;28;20295;-78
2023/12/21 07:22:30;;;;;;;5.93;3.20;;;;;;;;;;4994537;28;20232;-78
2023/12/21 07:25:01;;;;;;;11.20;3.43;;;;;;;;;;4994991;28;20200;-78
2023/12/21 07:27:29;;;;;;;9.67;3.30;;;;;;;;;;4994954;28;20244;-78
2023/12/21 07:29:59;;;;;;;7.03;3.60;;;;;;;;;;4994448;28;20201;-78
2023/12/21 07:32:29;;;;;;;10.70;4.30;;;;;;;;;;4993878;28;20203;-79
2023/12/21 07:34:57;;;;;;;4.90;3.33;;;;;;;;;;4994874;28;20200;-79
2023/12/21 07:37:26;;;;;;;6.57;2.97;;;;;;;;;;4994254;28;20207;-78
2023/12/21 07:39:54;;;;;;;8.00;3.80;;;;;;;;;;4994431;28;20302;-78
2023/12/21 07:42:23;;;;;;;6.87;2.53;;;;;;;;;;4994501;28;20201;-78
2023/12/21 07:44:51;;;;;;;4.80;1.97;;;;;;;;;;4994427;28;20216;-78
2023/12/21 07:47:20;;;;;;;8.27;2.23;;;;;;;;;;4994420;28;20208;-79
2023/12/21 07:49:50;;;;;;;9.97;2.50;;;;;;;;;;4993691;28;20196;-78
2023/12/21 07:52:19;;;;;;;10.37;3.93;;;;;;;;;;4993451;28;20211;-78
2023/12/21 07:54:47;;;;;;;13.00;3.27;;;;;;;;;;4993978;28;20200;-78
2023/12/21 07:57:16;;;;;;;9.43;2.97;;;;;;;;;;4993840;28;20201;-79
2023/12/21 07:59:44;;;;;;;6.73;2.83;;;;;;;;;;4993941;28;20197;-78
2023/12/21 08:02:13;;;;;;;11.27;2.97;;;;;;;;;;4993241;28;20247;-79
2023/12/21 08:04:42;;;;;;;7.30;2.67;;;;;;;;;;4993536;28;20223;-78
2023/12/21 08:07:12;;;;;;;8.43;2.57;;;;;;;;;;4993382;28;20213;-78
2023/12/21 08:09:41;;;;;;;5.37;3.03;;;;;;;;;;4993397;28;20373;-79
2023/12/21 08:12:12;;;;;;;9.13;3.97;;;;;;;;;;4993108;28;20200;-79
2023/12/21 08:14:40;;;;;;;3.27;2.53;;;;;;;;;;4993134;28;20228;-79
2023/12/21 08:17:10;;;;;;;4.60;2.53;;;;;;;;;;4993293;28;20207;-78
2023/12/21 08:19:39;;;;;;;9.67;2.90;;;;;;;;;;4993387;28;20199;-78
2023/12/21 08:22:09;;;;;;;20.57;5.33;;;;;;;;;;4992857;28;20258;-79
2023/12/21 08:24:39;;;;;;;14.33;3.90;;;;;;;;;;4993121;28;20303;-78
2023/12/21 08:27:08;;;;;;;9.77;2.97;;;;;;;;;;4993276;28;20358;-78
2023/12/21 08:29:40;;;;;;;9.23;3.40;;;;;;;;;;4993141;28;20242;-79
2023/12/21 08:32:09;;;;;;;21.27;6.63;;;;;;;;;;4992810;28;20201;-79
2023/12/21 08:34:38;;;;;;;9.83;3.90;;;;;;;;;;4993185;28;20209;-79
2023/12/21 08:37:06;;;;;;;12.07;4.93;;;;;;;;;;4989873;28;20216;-79
2023/12/21 08:39:35;;;;;;;15.30;6.03;;;;;;;;;;4979912;28;20208;-78
2023/12/21 08:42:06;;;;;;;13.87;2.97;;;;;;;;;;4989588;28;20213;-78
2023/12/21 08:44:34;;;;;;;13.50;5.17;;;;;;;;;;4990957;28;20216;-79
2023/12/21 08:47:02;;;;;;;11.03;3.60;;;;;;;;;;4991089;28;20204;-78
2023/12/21 08:49:31;;;;;;;14.40;3.23;;;;;;;;;;4990369;28;20211;-78
2023/12/21 08:52:00;;;;;;;14.13;5.70;;;;;;;;;;4991288;28;20208;-78
2023/12/21 08:54:28;;;;;;;11.93;4.60;;;;;;;;;;4983568;28;20204;-78
2023/12/21 08:56:57;;;;;;;9.97;3.43;;;;;;;;;;4989865;28;20200;-78
2023/12/21 08:59:27;;;;;;;10.07;2.73;;;;;;;;;;4991150;28;20200;-78
2023/12/21 09:01:56;;;;;;;8.33;3.73;;;;;;;;;;4991067;28;20261;-78
2023/12/21 09:04:24;;;;;;;11.30;4.40;;;;;;;;;;4989677;28;20227;-78
2023/12/21 09:06:53;;;;;;;16.73;4.90;;;;;;;;;;4990989;28;20404;-79
2023/12/21 09:09:22;;;;;;;7.37;2.43;;;;;;;;;;4990902;28;20208;-79
2023/12/21 09:11:50;;;;;;;14.07;5.70;;;;;;;;;;4991287;28;20207;-78
2023/12/21 09:14:19;;;;;;;8.80;3.10;;;;;;;;;;4990023;28;20230;-79
2023/12/21 09:16:51;;;;;;;14.93;4.93;;;;;;;;;;4990884;28;20208;-78
2023/12/21 09:19:20;;;;;;;20.27;5.17;;;;;;;;;;4991162;28;20295;-79
2023/12/21 09:21:48;;;;;;;17.67;4.53;;;;;;;;;;4990979;28;20197;-79
2023/12/21 09:24:17;;;;;;;13.57;4.40;;;;;;;;;;4990348;28;20224;-79
2023/12/21 09:26:45;;;;;;;13.13;5.43;;;;;;;;;;4988521;28;20284;-86
2023/12/21 09:29:14;;;;;;;19.17;6.30;;;;;;;;;;4990745;28;20263;-86
2023/12/21 09:31:42;;;;;;;8.87;3.23;;;;;;;;;;4990643;28;20311;-85
2023/12/21 09:34:15;;;;;;;17.40;5.30;;;;;;;;;;4989092;28;20389;-86
2023/12/21 09:36:44;;;;;;;11.83;4.30;;;;;;;;;;4991293;28;20254;-84
2023/12/21 09:39:12;;;;;;;10.53;2.77;;;;;;;;;;4979777;28;20209;-85
2023/12/21 09:41:41;;;;;;;12.87;5.63;;;;;;;;;;4978296;28;20444;-86
2023/12/21 09:44:24;;;;;;;19.83;6.33;;;;;;;;;;4990335;28;20267;-85
2023/12/21 09:46:57;;;;;;;12.13;3.37;;;;;;;;;;4991091;28;20308;-85
2023/12/21 09:49:27;;;;;;;15.53;4.10;;;;;;;;;;4991345;28;20224;-85
2023/12/21 09:51:56;;;;;;;17.23;6.37;;;;;;;;;;4990803;28;20201;-86
2023/12/21 09:54:26;;;;;;;9.80;3.30;;;;;;;;;;4989086;28;20211;-86
2023/12/21 09:56:58;;;;;;;11.53;3.50;;;;;;;;;;4985562;28;20212;-86
2023/12/21 09:59:30;;;;;;;20.53;6.10;;;;;;;;;;4986713;28;20206;-86
2023/12/21 10:01:59;;;;;;;17.40;3.83;;;;;;;;;;4990641;28;20291;-85
2023/12/21 10:04:29;;;;;;;15.03;4.63;;;;;;;;;;4986248;28;20314;-85
2023/12/21 10:06:57;;;;;;;24.97;4.23;;;;;;;;;;4987897;28;20212;-86
2023/12/21 10:09:26;;;;;;;10.23;4.33;;;;;;;;;;4990461;28;20201;-88
2023/12/21 10:11:55;;;;;;;17.70;5.43;;;;;;;;;;4991025;28;20201;-88
2023/12/21 10:14:24;;;;;;;13.70;4.40;;;;;;;;;;4990278;28;20294;-87
2023/12/21 10:16:55;;;;;;;19.27;5.93;;;;;;;;;;4990172;28;20204;-84
2023/12/21 10:19:24;;;;;;;21.53;5.40;;;;;;;;;;4990435;28;20213;-85
2023/12/21 10:21:54;;;;;;;21.60;2.77;;;;;;;;;;4988377;28;20197;-85
2023/12/21 10:24:23;;;;;;;7.97;3.23;;;;;;;;;;4989403;28;20224;-85
2023/12/21 10:26:52;;;;;;;16.43;5.03;;;;;;;;;;4990631;28;20211;-87
2023/12/21 10:29:20;;;;;;;17.27;5.40;;;;;;;;;;4990645;28;20201;-86
2023/12/21 10:31:50;;;;;;;8.73;3.97;;;;;;;;;;4990763;28;20227;-86
2023/12/21 10:34:18;;;;;;;13.10;3.87;;;;;;;;;;4989681;28;20201;-85
2023/12/21 10:36:47;;;;;;;16.03;5.00;;;;;;;;;;4989979;28;20259;-85
2023/12/21 10:39:17;;;;;;;10.73;4.20;;;;;;;;;;4993155;28;20192;-85
2023/12/21 10:41:46;;;;;;;15.87;5.87;;;;;;;;;;4993895;28;20204;-86
2023/12/21 10:44:16;;;;;;;26.17;7.60;;;;;;;;;;4991159;28;20204;-85
2023/12/21 10:46:45;;;;;;;18.90;5.83;;;;;;;;;;4983086;28;20222;-86
2023/12/21 10:49:13;;;;;;;12.80;4.70;;;;;;;;;;4994235;28;20235;-85
2023/12/21 10:51:43;;;;;;;9.80;3.37;;;;;;;;;;4995345;28;20201;-86
2023/12/21 10:54:12;;;;;;;12.13;4.30;;;;;;;;;;4993543;28;20209;-85
2023/12/21 10:56:43;;;;;;;15.13;4.70;;;;;;;;;;4987598;28;20238;-86
2023/12/21 10:59:14;;;;;;;15.53;3.97;;;;;;;;;;4991427;28;20218;-86
2023/12/21 11:01:43;;;;;;;15.57;5.30;;;;;;;;;;4993766;28;20199;-86
2023/12/21 11:04:13;;;;;;;10.90;3.47;;;;;;;;;;4993373;28;20232;-86
2023/12/21 11:06:43;;;;;;;18.10;4.67;;;;;;;;;;4992073;28;20267;-84
2023/12/21 11:09:18;;;;;;;17.43;6.23;;;;;;;;;;4992241;28;20204;-86
2023/12/21 11:11:48;;;;;;;11.53;3.10;;;;;;;;;;4987672;28;20208;-85
2023/12/21 11:14:19;;;;;;;8.20;3.67;;;;;;;;;;4994005;28;20232;-85
2023/12/21 11:16:50;;;;;;;19.97;6.17;;;;;;;;;;4993441;28;20228;-85
2023/12/21 11:19:22;;;;;;;18.67;5.67;;;;;;;;;;4993179;28;20211;-86
2023/12/21 11:21:53;;;;;;;9.93;3.93;;;;;;;;;;4992875;28;20276;-86
2023/12/21 11:24:22;;;;;;;17.13;5.67;;;;;;;;;;4986234;28;20220;-85
2023/12/21 11:26:52;;;;;;;9.93;3.83;;;;;;;;;;4991116;28;20212;-86
2023/12/21 11:29:26;;;;;;;8.63;3.33;;;;;;;;;;4993435;28;20204;-86
2023/12/21 11:31:56;;;;;;;11.07;4.10;;;;;;;;;;4992359;28;20269;-84
2023/12/21 11:34:36;;;;;;;10.27;3.63;;;;;;;;;;4992695;28;20309;-85
2023/12/21 11:37:17;;;;;;;14.83;4.57;;;;;;;;;;4995023;28;20191;-86
2023/12/21 11:39:47;;;;;;;13.53;4.63;;;;;;;;;;4993285;28;20210;-86
2023/12/21 11:42:16;;;;;;;12.90;2.93;;;;;;;;;;4991551;28;20197;-86
2023/12/21 11:44:48;;;;;;;22.63;4.73;;;;;;;;;;4992878;28;20247;-86
2023/12/21 11:47:19;;;;;;;16.47;5.30;;;;;;;;;;4984589;28;20216;-86
2023/12/21 11:49:51;;;;;;;12.17;3.37;;;;;;;;;;4992159;28;20239;-85
2023/12/21 11:52:25;;;;;;;19.53;5.60;;;;;;;;;;4992169;28;20207;-86
2023/12/21 11:54:54;;;;;;;13.10;4.90;;;;;;;;;;4992715;28;20204;-85
2023/12/21 11:57:29;;;;;;;13.30;3.17;;;;;;;;;;4991958;28;20200;-85
2023/12/21 12:00:07;;;;;;;18.40;4.80;;;;;;;;;;4991449;28;20196;-86
2023/12/21 12:02:36;;;;;;;14.50;4.60;;;;;;;;;;4992887;28;20201;-86
2023/12/21 12:05:04;;;;;;;12.43;5.03;;;;;;;;;;4992747;28;20204;-85
2023/12/21 12:07:33;;;;;;;14.00;5.00;;;;;;;;;;4992826;28;20290;-85
2023/12/21 12:10:02;;;;;;;24.20;7.07;;;;;;;;;;4992461;28;20295;-86
2023/12/21 12:12:32;;;;;;;13.40;4.93;;;;;;;;;;4992579;28;20200;-85
2023/12/21 12:15:00;;;;;;;19.53;6.53;;;;;;;;;;4992464;28;20200;-86
2023/12/21 12:17:29;;;;;;;19.77;5.50;;;;;;;;;;4992088;28;20208;-85
2023/12/21 12:19:57;;;;;;;15.50;5.03;;;;;;;;;;4992692;28;20205;-85
2023/12/21 12:22:26;;;;;;;17.47;5.00;;;;;;;;;;4992413;28;20196;-87
2023/12/21 12:24:56;;;;;;;10.03;4.40;;;;;;;;;;4992115;28;20377;-86
2023/12/21 12:27:25;;;;;;;15.10;6.07;;;;;;;;;;4991154;28;20236;-86
2023/12/21 12:29:56;;;;;;;15.53;5.07;;;;;;;;;;4989058;28;20200;-86
2023/12/21 12:32:25;;;;;;;9.60;3.17;;;;;;;;;;4990972;28;20201;-87
2023/12/21 12:34:53;;;;;;;18.13;5.30;;;;;;;;;;4992976;28;20299;-86
2023/12/21 12:37:22;;;;;;;17.10;5.53;;;;;;;;;;4989221;28;20200;-86
2023/12/21 12:39:51;;;;;;;12.77;4.40;;;;;;;;;;4991929;28;20209;-86
2023/12/21 12:42:19;;;;;;;14.40;6.07;;;;;;;;;;4992034;28;20201;-86
2023/12/21 12:44:51;;;;;;;19.37;6.07;;;;;;;;;;4992407;28;20212;-86
2023/12/21 12:47:23;;;;;;;13.57;3.80;;;;;;;;;;4992014;28;20220;-86
2023/12/21 12:49:52;;;;;;;13.40;6.10;;;;;;;;;;4990117;28;20255;-86
2023/12/21 12:52:21;;;;;;;16.13;5.57;;;;;;;;;;4991950;28;20208;-85
2023/12/21 12:54:50;;;;;;;14.50;5.80;;;;;;;;;;4992141;28;20283;-84
2023/12/21 12:57:20;;;;;;;21.40;6.93;;;;;;;;;;4992005;28;20203;-84
2023/12/21 12:59:48;;;;;;;12.57;4.20;;;;;;;;;;4991350;28;20213;-84
2023/12/21 13:02:17;;;;;;;16.57;8.83;;;;;;;;;;4991861;28;20232;-84
2023/12/21 13:04:47;;;;;;;17.17;4.80;;;;;;;;;;4992263;28;20200;-84
2023/12/21 13:07:20;;;;;;;11.73;4.70;;;;;;;;;;4979971;28;20216;-84
2023/12/21 13:09:52;;;;;;;22.63;5.43;;;;;;;;;;4982166;28;20213;-86
2023/12/21 13:12:37;;;;;;;13.17;4.03;;;;;;;;;;4985806;28;20282;-86
2023/12/21 13:15:07;;;;;;;17.73;4.53;;;;;;;;;;4983795;28;20216;-86
2023/12/21 13:17:36;;;;;;;12.50;4.17;;;;;;;;;;4983625;28;20213;-85
2023/12/21 13:20:09;;;;;;;11.90;5.30;;;;;;;;;;4987073;28;20215;-85
2023/12/21 13:22:40;;;;;;;15.33;4.30;;;;;;;;;;4986401;28;20236;-85
2023/12/21 13:25:12;;;;;;;26.10;8.87;;;;;;;;;;4986315;28;20212;-85
2023/12/21 13:27:40;;;;;;;25.67;10.00;;;;;;;;;;4987327;28;20417;-84
2023/12/21 13:30:12;;;;;;;17.93;5.20;;;;;;;;;;4987975;28;20208;-84
2023/12/21 13:32:41;;;;;;;23.90;6.07;;;;;;;;;;4982131;28;20636;-86
2023/12/21 13:35:11;;;;;;;21.93;6.27;;;;;;;;;;4990680;28;20208;-85
2023/12/21 13:37:42;;;;;;;19.53;4.83;;;;;;;;;;4981024;28;20272;-86
2023/12/21 13:40:11;;;;;;;18.20;8.30;;;;;;;;;;4981920;28;20219;-86
2023/12/21 13:42:39;;;;;;;12.77;6.40;;;;;;;;;;4988326;28;20243;-86
2023/12/21 13:45:09;;;;;;;22.53;5.57;;;;;;;;;;4984667;28;20243;-85
2023/12/21 13:47:38;;;;;;;21.70;7.70;;;;;;;;;;4978638;28;20228;-85
2023/12/21 13:50:07;;;;;;;26.47;6.57;;;;;;;;;;4988250;28;20292;-86
2023/12/21 13:52:37;;;;;;;25.73;8.40;;;;;;;;;;4981898;28;20214;-87
2023/12/21 13:55:06;;;;;;;26.77;7.83;;;;;;;;;;4986213;28;20312;-86
2023/12/21 13:57:35;;;;;;;16.60;6.13;;;;;;;;;;4978951;28;20201;-87
2023/12/21 14:00:04;;;;;;;18.60;5.20;;;;;;;;;;4986138;28;20290;-86
2023/12/21 14:02:32;;;;;;;17.60;6.50;;;;;;;;;;4988419;28;20268;-87
2023/12/21 14:05:01;;;;;;;21.83;6.17;;;;;;;;;;4988211;28;20283;-86
2023/12/21 14:07:30;;;;;;;21.53;6.50;;;;;;;;;;4987459;28;20234;-87
2023/12/21 14:10:00;;;;;;;17.60;7.07;;;;;;;;;;4987453;28;20200;-85
2023/12/21 14:12:29;;;;;;;30.10;10.67;;;;;;;;;;4989896;28;20208;-86
2023/12/21 14:14:59;;;;;;;21.43;8.57;;;;;;;;;;4988345;28;20315;-87
2023/12/21 14:17:28;;;;;;;8.97;4.80;;;;;;;;;;4981190;28;20210;-86
2023/12/21 14:19:59;;;;;;;16.53;6.37;;;;;;;;;;4992254;28;20216;-87
2023/12/21 14:22:30;;;;;;;15.80;6.20;;;;;;;;;;4989742;28;20232;-83
2023/12/21 14:24:58;;;;;;;21.10;5.90;;;;;;;;;;4990732;28;20212;-86
2023/12/21 14:27:28;;;;;;;14.53;4.67;;;;;;;;;;4991296;28;20287;-87
2023/12/21 14:29:57;;;;;;;20.50;5.80;;;;;;;;;;4984808;28;20216;-79
2023/12/21 14:32:25;;;;;;;23.83;5.80;;;;;;;;;;4991561;28;20380;-79
2023/12/21 14:34:55;;;;;;;13.63;4.27;;;;;;;;;;4989572;28;20204;-79
2023/12/21 14:37:26;;;;;;;17.30;4.97;;;;;;;;;;4990374;28;20205;-80
2023/12/21 14:39:55;;;;;;;14.97;5.43;;;;;;;;;;4991318;28;20200;-79
2023/12/21 14:42:26;;;;;;;16.93;6.30;;;;;;;;;;4988963;28;20224;-78
2023/12/21 14:44:56;;;;;;;13.97;5.53;;;;;;;;;;4988903;28;20203;-79